sensor_id;sensor_type;location;lat;lon;timestamp;temperature;humidity
8220;DHT22;4151;51.110;7.020;2023-07-31T00:00:38;16.20;99.90
8220;DHT22;4151;51.110;7.020;2023-07-31T00:03:03;16.20;99.90
8220;DHT22;4151;51.110;7.020;2023-07-31T00:05:29;16.20;99.90
8220;DHT22;4151;51.110;7.020;2023-07-31T00:07:54;16.20;99.90
8220;DHT22;4151;51.110;7.020;2023-07-31T00:10:20;16.20;99.90
8220;DHT22;4151;51.110;7.020;2023-07-31T00:12:46;16.20;99.90
8220;DHT22;4151;51.110;7.020;2023-07-31T00:15:13;16.20;99.90
8220;DHT22;4151;51.110;7.020;2023-07-31T00:17:38;16.20;99.90
8220;DHT22;4151;51.110;7.020;2023-07-31T00:20:04;16.20;99.90
8220;DHT22;4151;51.110;7.020;2023-07-31T00:22:30;16.20;99.90
8220;DHT22;4151;51.110;7.020;2023-07-31T00:24:56;16.20;99.90
8220;DHT22;4151;51.110;7.020;2023-07-31T00:27:22;16.20;99.90
8220;DHT22;4151;51.110;7.020;2023-07-31T00:29:48;16.10;99.90
8220;DHT22;4151;51.110;7.020;2023-07-31T00:32:13;16.20;99.90
8220;DHT22;4151;51.110;7.020;2023-07-31T00:34:39;16.20;99.90
8220;DHT22;4151;51.110;7.020;2023-07-31T00:37:04;16.20;99.90
8220;DHT22;4151;51.110;7.020;2023-07-31T00:39:30;16.20;99.90
8220;DHT22;4151;51.110;7.020;2023-07-31T00:41:56;16.30;99.90
8220;DHT22;4151;51.110;7.020;2023-07-31T00:44:22;16.30;99.90
8220;DHT22;4151;51.110;7.020;2023-07-31T00:46:47;16.20;99.90
8220;DHT22;4151;51.110;7.020;2023-07-31T00:49:13;16.20;99.90
8220;DHT22;4151;51.110;7.020;2023-07-31T00:51:39;16.30;99.90
8220;DHT22;4151;51.110;7.020;2023-07-31T00:54:06;16.30;99.90
8220;DHT22;4151;51.110;7.020;2023-07-31T00:56:32;16.30;99.90
8220;DHT22;4151;51.110;7.020;2023-07-31T00:58:57;16.30;99.90
8220;DHT22;4151;51.110;7.020;2023-07-31T01:01:23;16.40;99.90
8220;DHT22;4151;51.110;7.020;2023-07-31T01:03:50;16.30;99.90
8220;DHT22;4151;51.110;7.020;2023-07-31T01:06:37;16.40;99.90
8220;DHT22;4151;51.110;7.020;2023-07-31T01:11:35;16.50;99.90
8220;DHT22;4151;51.110;7.020;2023-07-31T01:14:03;16.50;99.90
8220;DHT22;4151;51.110;7.020;2023-07-31T01:16:29;16.50;99.90
8220;DHT22;4151;51.110;7.020;2023-07-31T01:18:54;16.60;99.90
8220;DHT22;4151;51.110;7.020;2023-07-31T01:24:28;16.60;99.90
8220;DHT22;4151;51.110;7.020;2023-07-31T01:26:58;16.60;99.90
8220;DHT22;4151;51.110;7.020;2023-07-31T01:29:45;16.60;99.90
8220;DHT22;4151;51.110;7.020;2023-07-31T01:32:12;16.60;99.90
8220;DHT22;4151;51.110;7.020;2023-07-31T01:34:39;16.70;99.90
8220;DHT22;4151;51.110;7.020;2023-07-31T01:37:06;16.70;99.90
8220;DHT22;4151;51.110;7.020;2023-07-31T01:39:32;16.70;99.90
8220;DHT22;4151;51.110;7.020;2023-07-31T01:41:57;16.70;99.90
8220;DHT22;4151;51.110;7.020;2023-07-31T01:44:23;16.70;99.90
8220;DHT22;4151;51.110;7.020;2023-07-31T01:46:48;16.70;99.90
8220;DHT22;4151;51.110;7.020;2023-07-31T01:49:14;16.70;99.90
8220;DHT22;4151;51.110;7.020;2023-07-31T01:51:39;16.70;99.90
8220;DHT22;4151;51.110;7.020;2023-07-31T01:54:05;16.70;99.90
8220;DHT22;4151;51.110;7.020;2023-07-31T01:56:31;16.60;99.90
8220;DHT22;4151;51.110;7.020;2023-07-31T01:58:56;16.70;99.90
8220;DHT22;4151;51.110;7.020;2023-07-31T02:01:22;16.80;99.90
8220;DHT22;4151;51.110;7.020;2023-07-31T02:03:47;16.80;99.90
8220;DHT22;4151;51.110;7.020;2023-07-31T02:06:13;16.80;99.90
8220;DHT22;4151;51.110;7.020;2023-07-31T02:08:38;16.80;99.90
8220;DHT22;4151;51.110;7.020;2023-07-31T02:11:04;16.80;99.90
8220;DHT22;4151;51.110;7.020;2023-07-31T02:13:29;16.80;99.90
8220;DHT22;4151;51.110;7.020;2023-07-31T02:15:55;16.80;99.90
8220;DHT22;4151;51.110;7.020;2023-07-31T02:18:20;16.80;99.90
8220;DHT22;4151;51.110;7.020;2023-07-31T02:20:50;16.80;99.90
8220;DHT22;4151;51.110;7.020;2023-07-31T02:23:19;16.80;99.90
8220;DHT22;4151;51.110;7.020;2023-07-31T02:25:45;16.80;99.90
8220;DHT22;4151;51.110;7.020;2023-07-31T02:28:11;16.90;99.90
8220;DHT22;4151;51.110;7.020;2023-07-31T02:30:37;16.80;99.90
8220;DHT22;4151;51.110;7.020;2023-07-31T02:33:04;16.90;99.90
8220;DHT22;4151;51.110;7.020;2023-07-31T02:35:30;16.90;99.90
8220;DHT22;4151;51.110;7.020;2023-07-31T02:37:55;16.80;99.90
8220;DHT22;4151;51.110;7.020;2023-07-31T02:40:21;16.80;99.90
8220;DHT22;4151;51.110;7.020;2023-07-31T02:42:47;16.80;99.90
8220;DHT22;4151;51.110;7.020;2023-07-31T02:45:12;16.80;99.90
8220;DHT22;4151;51.110;7.020;2023-07-31T02:47:38;16.80;99.90
8220;DHT22;4151;51.110;7.020;2023-07-31T02:50:04;16.90;99.90
8220;DHT22;4151;51.110;7.020;2023-07-31T02:52:30;16.90;99.90
8220;DHT22;4151;51.110;7.020;2023-07-31T02:54:55;16.80;99.90
8220;DHT22;4151;51.110;7.020;2023-07-31T02:57:21;16.90;99.90
8220;DHT22;4151;51.110;7.020;2023-07-31T02:59:46;16.90;99.90
8220;DHT22;4151;51.110;7.020;2023-07-31T03:02:12;16.90;99.90
8220;DHT22;4151;51.110;7.020;2023-07-31T03:04:38;16.90;99.90
8220;DHT22;4151;51.110;7.020;2023-07-31T03:07:04;16.90;99.90
8220;DHT22;4151;51.110;7.020;2023-07-31T03:09:30;16.90;99.90
8220;DHT22;4151;51.110;7.020;2023-07-31T03:11:55;16.90;99.90
8220;DHT22;4151;51.110;7.020;2023-07-31T03:14:21;16.90;99.90
8220;DHT22;4151;51.110;7.020;2023-07-31T03:16:46;17.00;99.90
8220;DHT22;4151;51.110;7.020;2023-07-31T03:19:12;17.00;99.90
8220;DHT22;4151;51.110;7.020;2023-07-31T03:21:38;17.00;99.90
8220;DHT22;4151;51.110;7.020;2023-07-31T03:24:04;17.00;99.90
8220;DHT22;4151;51.110;7.020;2023-07-31T03:26:31;17.00;99.90
8220;DHT22;4151;51.110;7.020;2023-07-31T03:28:57;17.00;99.90
8220;DHT22;4151;51.110;7.020;2023-07-31T03:31:22;17.00;99.90
8220;DHT22;4151;51.110;7.020;2023-07-31T03:33:48;17.00;99.90
8220;DHT22;4151;51.110;7.020;2023-07-31T03:36:13;17.00;99.90
8220;DHT22;4151;51.110;7.020;2023-07-31T03:38:39;17.00;99.90
8220;DHT22;4151;51.110;7.020;2023-07-31T03:41:04;17.00;99.90
8220;DHT22;4151;51.110;7.020;2023-07-31T03:43:31;17.00;99.90
8220;DHT22;4151;51.110;7.020;2023-07-31T03:45:59;17.00;99.90
8220;DHT22;4151;51.110;7.020;2023-07-31T03:48:25;17.00;99.90
8220;DHT22;4151;51.110;7.020;2023-07-31T03:50:50;17.00;99.90
8220;DHT22;4151;51.110;7.020;2023-07-31T03:53:16;16.90;99.90
8220;DHT22;4151;51.110;7.020;2023-07-31T03:55:41;16.90;99.90
8220;DHT22;4151;51.110;7.020;2023-07-31T03:58:07;16.80;99.90
8220;DHT22;4151;51.110;7.020;2023-07-31T04:00:33;16.80;99.90
8220;DHT22;4151;51.110;7.020;2023-07-31T04:02:58;16.70;99.90
8220;DHT22;4151;51.110;7.020;2023-07-31T04:05:24;16.70;99.90
8220;DHT22;4151;51.110;7.020;2023-07-31T04:07:49;16.70;99.90
8220;DHT22;4151;51.110;7.020;2023-07-31T04:10:15;16.70;99.90
8220;DHT22;4151;51.110;7.020;2023-07-31T04:12:40;16.70;99.90
8220;DHT22;4151;51.110;7.020;2023-07-31T04:15:06;16.70;99.90
8220;DHT22;4151;51.110;7.020;2023-07-31T04:17:32;16.80;99.90
8220;DHT22;4151;51.110;7.020;2023-07-31T04:19:58;16.70;99.90
8220;DHT22;4151;51.110;7.020;2023-07-31T04:22:23;16.80;99.90
8220;DHT22;4151;51.110;7.020;2023-07-31T04:24:49;16.80;99.90
8220;DHT22;4151;51.110;7.020;2023-07-31T04:27:14;16.80;99.90
8220;DHT22;4151;51.110;7.020;2023-07-31T04:29:40;16.80;99.90
8220;DHT22;4151;51.110;7.020;2023-07-31T04:32:07;16.80;99.90
8220;DHT22;4151;51.110;7.020;2023-07-31T04:34:33;16.80;99.90
8220;DHT22;4151;51.110;7.020;2023-07-31T04:36:59;16.90;99.90
8220;DHT22;4151;51.110;7.020;2023-07-31T04:39:24;16.80;99.90
8220;DHT22;4151;51.110;7.020;2023-07-31T04:41:50;16.80;99.90
8220;DHT22;4151;51.110;7.020;2023-07-31T04:44:15;16.80;99.90
8220;DHT22;4151;51.110;7.020;2023-07-31T04:46:41;16.80;99.90
8220;DHT22;4151;51.110;7.020;2023-07-31T04:49:06;16.70;99.90
8220;DHT22;4151;51.110;7.020;2023-07-31T04:51:32;16.70;99.90
8220;DHT22;4151;51.110;7.020;2023-07-31T04:53:57;16.70;99.90
8220;DHT22;4151;51.110;7.020;2023-07-31T04:56:23;16.60;99.90
8220;DHT22;4151;51.110;7.020;2023-07-31T04:58:48;16.60;99.90
8220;DHT22;4151;51.110;7.020;2023-07-31T05:01:14;16.60;99.90
8220;DHT22;4151;51.110;7.020;2023-07-31T05:03:39;16.70;99.90
8220;DHT22;4151;51.110;7.020;2023-07-31T05:06:05;16.70;99.90
8220;DHT22;4151;51.110;7.020;2023-07-31T05:08:30;16.70;99.90
8220;DHT22;4151;51.110;7.020;2023-07-31T05:10:56;16.80;99.90
8220;DHT22;4151;51.110;7.020;2023-07-31T05:13:22;16.80;99.90
8220;DHT22;4151;51.110;7.020;2023-07-31T05:15:47;16.90;99.90
8220;DHT22;4151;51.110;7.020;2023-07-31T05:18:15;17.00;99.90
8220;DHT22;4151;51.110;7.020;2023-07-31T05:20:40;17.00;99.90
8220;DHT22;4151;51.110;7.020;2023-07-31T05:23:06;17.10;99.90
8220;DHT22;4151;51.110;7.020;2023-07-31T05:25:32;17.20;99.90
8220;DHT22;4151;51.110;7.020;2023-07-31T05:27:57;17.20;99.90
8220;DHT22;4151;51.110;7.020;2023-07-31T05:30:23;17.30;99.90
8220;DHT22;4151;51.110;7.020;2023-07-31T05:32:49;17.40;99.90
8220;DHT22;4151;51.110;7.020;2023-07-31T05:35:15;17.40;99.90
8220;DHT22;4151;51.110;7.020;2023-07-31T05:37:40;17.50;99.90
8220;DHT22;4151;51.110;7.020;2023-07-31T05:40:06;17.50;99.90
8220;DHT22;4151;51.110;7.020;2023-07-31T05:42:32;17.60;99.90
8220;DHT22;4151;51.110;7.020;2023-07-31T05:44:57;17.60;99.90
8220;DHT22;4151;51.110;7.020;2023-07-31T05:47:23;17.70;99.90
8220;DHT22;4151;51.110;7.020;2023-07-31T05:49:49;17.70;99.90
8220;DHT22;4151;51.110;7.020;2023-07-31T05:52:17;17.70;99.90
8220;DHT22;4151;51.110;7.020;2023-07-31T05:54:42;17.70;99.90
8220;DHT22;4151;51.110;7.020;2023-07-31T05:57:08;17.70;99.90
8220;DHT22;4151;51.110;7.020;2023-07-31T05:59:33;17.70;99.90
8220;DHT22;4151;51.110;7.020;2023-07-31T06:01:59;17.60;99.90
8220;DHT22;4151;51.110;7.020;2023-07-31T06:04:25;17.60;99.90
8220;DHT22;4151;51.110;7.020;2023-07-31T06:06:51;17.60;99.90
8220;DHT22;4151;51.110;7.020;2023-07-31T06:09:16;17.60;99.90
8220;DHT22;4151;51.110;7.020;2023-07-31T06:11:42;17.60;99.90
8220;DHT22;4151;51.110;7.020;2023-07-31T06:14:08;17.50;99.90
8220;DHT22;4151;51.110;7.020;2023-07-31T06:16:33;17.40;99.90
8220;DHT22;4151;51.110;7.020;2023-07-31T06:18:59;17.20;99.90
8220;DHT22;4151;51.110;7.020;2023-07-31T06:21:24;17.00;99.90
8220;DHT22;4151;51.110;7.020;2023-07-31T06:23:50;16.80;99.90
8220;DHT22;4151;51.110;7.020;2023-07-31T06:26:15;16.70;99.90
8220;DHT22;4151;51.110;7.020;2023-07-31T06:28:42;16.60;99.90
8220;DHT22;4151;51.110;7.020;2023-07-31T06:31:07;16.50;99.90
8220;DHT22;4151;51.110;7.020;2023-07-31T06:33:33;16.40;99.90
8220;DHT22;4151;51.110;7.020;2023-07-31T06:35:58;16.40;99.90
8220;DHT22;4151;51.110;7.020;2023-07-31T06:38:27;16.30;99.90
8220;DHT22;4151;51.110;7.020;2023-07-31T06:40:53;16.40;99.90
8220;DHT22;4151;51.110;7.020;2023-07-31T06:43:18;16.40;99.90
8220;DHT22;4151;51.110;7.020;2023-07-31T06:45:44;16.40;99.90
8220;DHT22;4151;51.110;7.020;2023-07-31T06:48:10;16.50;99.90
8220;DHT22;4151;51.110;7.020;2023-07-31T06:50:35;16.40;99.90
8220;DHT22;4151;51.110;7.020;2023-07-31T06:53:01;16.50;99.90
8220;DHT22;4151;51.110;7.020;2023-07-31T06:55:27;16.50;99.90
8220;DHT22;4151;51.110;7.020;2023-07-31T06:57:54;16.50;99.90
8220;DHT22;4151;51.110;7.020;2023-07-31T07:00:21;16.50;99.90
8220;DHT22;4151;51.110;7.020;2023-07-31T07:02:48;16.50;99.90
8220;DHT22;4151;51.110;7.020;2023-07-31T07:05:14;16.50;99.90
8220;DHT22;4151;51.110;7.020;2023-07-31T07:07:40;16.60;99.90
8220;DHT22;4151;51.110;7.020;2023-07-31T07:10:06;16.70;99.90
8220;DHT22;4151;51.110;7.020;2023-07-31T07:12:32;16.70;99.90
8220;DHT22;4151;51.110;7.020;2023-07-31T07:14:58;16.80;99.90
8220;DHT22;4151;51.110;7.020;2023-07-31T07:17:24;16.80;99.90
8220;DHT22;4151;51.110;7.020;2023-07-31T07:19:50;16.90;99.90
8220;DHT22;4151;51.110;7.020;2023-07-31T07:22:15;16.90;99.90
8220;DHT22;4151;51.110;7.020;2023-07-31T07:24:41;16.90;99.90
8220;DHT22;4151;51.110;7.020;2023-07-31T07:27:07;16.90;99.90
8220;DHT22;4151;51.110;7.020;2023-07-31T07:29:34;16.90;99.90
8220;DHT22;4151;51.110;7.020;2023-07-31T07:32:00;16.90;99.90
8220;DHT22;4151;51.110;7.020;2023-07-31T07:34:26;16.90;99.90
8220;DHT22;4151;51.110;7.020;2023-07-31T07:36:52;16.90;99.90
8220;DHT22;4151;51.110;7.020;2023-07-31T07:39:18;16.90;99.90
8220;DHT22;4151;51.110;7.020;2023-07-31T07:41:43;16.90;99.90
8220;DHT22;4151;51.110;7.020;2023-07-31T07:44:09;16.80;99.90
8220;DHT22;4151;51.110;7.020;2023-07-31T07:46:35;16.70;99.90
8220;DHT22;4151;51.110;7.020;2023-07-31T07:49:00;16.60;99.90
8220;DHT22;4151;51.110;7.020;2023-07-31T07:51:26;16.60;99.90
8220;DHT22;4151;51.110;7.020;2023-07-31T07:53:51;16.50;99.90
8220;DHT22;4151;51.110;7.020;2023-07-31T07:56:17;16.50;99.90
8220;DHT22;4151;51.110;7.020;2023-07-31T07:58:43;16.50;99.90
8220;DHT22;4151;51.110;7.020;2023-07-31T08:01:08;16.40;99.90
8220;DHT22;4151;51.110;7.020;2023-07-31T08:03:34;16.40;99.90
8220;DHT22;4151;51.110;7.020;2023-07-31T08:06:00;16.40;99.90
8220;DHT22;4151;51.110;7.020;2023-07-31T08:08:28;16.40;99.90
8220;DHT22;4151;51.110;7.020;2023-07-31T08:10:53;16.40;99.90
8220;DHT22;4151;51.110;7.020;2023-07-31T08:13:19;16.40;99.90
8220;DHT22;4151;51.110;7.020;2023-07-31T08:15:44;16.30;99.90
8220;DHT22;4151;51.110;7.020;2023-07-31T08:18:11;16.30;99.90
8220;DHT22;4151;51.110;7.020;2023-07-31T08:20:37;16.30;99.90
8220;DHT22;4151;51.110;7.020;2023-07-31T08:23:03;16.40;99.90
8220;DHT22;4151;51.110;7.020;2023-07-31T08:25:29;16.40;99.90
8220;DHT22;4151;51.110;7.020;2023-07-31T08:27:54;16.40;99.90
8220;DHT22;4151;51.110;7.020;2023-07-31T08:30:21;16.40;99.90
8220;DHT22;4151;51.110;7.020;2023-07-31T08:32:46;16.40;99.90
8220;DHT22;4151;51.110;7.020;2023-07-31T08:35:12;16.40;99.90
8220;DHT22;4151;51.110;7.020;2023-07-31T08:37:38;16.30;99.90
8220;DHT22;4151;51.110;7.020;2023-07-31T08:40:04;16.30;99.90
8220;DHT22;4151;51.110;7.020;2023-07-31T08:42:31;16.40;99.90
8220;DHT22;4151;51.110;7.020;2023-07-31T08:44:56;16.30;99.90
8220;DHT22;4151;51.110;7.020;2023-07-31T08:47:23;16.30;99.90
8220;DHT22;4151;51.110;7.020;2023-07-31T08:49:50;16.40;99.90
8220;DHT22;4151;51.110;7.020;2023-07-31T08:52:15;16.40;99.90
8220;DHT22;4151;51.110;7.020;2023-07-31T08:54:41;16.50;99.90
8220;DHT22;4151;51.110;7.020;2023-07-31T08:57:07;16.60;99.90
8220;DHT22;4151;51.110;7.020;2023-07-31T08:59:34;16.70;99.90
8220;DHT22;4151;51.110;7.020;2023-07-31T09:02:05;16.80;99.90
8220;DHT22;4151;51.110;7.020;2023-07-31T09:04:32;16.90;99.90
8220;DHT22;4151;51.110;7.020;2023-07-31T09:07:01;17.00;99.90
8220;DHT22;4151;51.110;7.020;2023-07-31T09:09:28;17.00;99.90
8220;DHT22;4151;51.110;7.020;2023-07-31T09:11:55;17.00;99.90
8220;DHT22;4151;51.110;7.020;2023-07-31T09:14:21;17.10;99.90
8220;DHT22;4151;51.110;7.020;2023-07-31T09:16:57;17.20;99.90
8220;DHT22;4151;51.110;7.020;2023-07-31T09:19:27;17.20;99.90
8220;DHT22;4151;51.110;7.020;2023-07-31T09:21:53;17.20;99.90
8220;DHT22;4151;51.110;7.020;2023-07-31T09:24:45;17.10;99.90
8220;DHT22;4151;51.110;7.020;2023-07-31T09:27:10;17.00;99.90
8220;DHT22;4151;51.110;7.020;2023-07-31T09:29:36;17.00;99.90
8220;DHT22;4151;51.110;7.020;2023-07-31T09:32:01;16.80;99.90
8220;DHT22;4151;51.110;7.020;2023-07-31T09:34:37;16.70;99.90
8220;DHT22;4151;51.110;7.020;2023-07-31T09:37:06;16.60;99.90
8220;DHT22;4151;51.110;7.020;2023-07-31T09:39:31;16.50;99.90
8220;DHT22;4151;51.110;7.020;2023-07-31T09:41:57;16.50;99.90
8220;DHT22;4151;51.110;7.020;2023-07-31T09:44:41;16.60;99.90
8220;DHT22;4151;51.110;7.020;2023-07-31T09:47:07;16.60;99.90
8220;DHT22;4151;51.110;7.020;2023-07-31T09:49:46;16.60;99.90
8220;DHT22;4151;51.110;7.020;2023-07-31T09:52:12;16.70;99.90
8220;DHT22;4151;51.110;7.020;2023-07-31T09:54:39;16.90;99.90
8220;DHT22;4151;51.110;7.020;2023-07-31T09:57:04;17.00;99.90
8220;DHT22;4151;51.110;7.020;2023-07-31T09:59:30;17.20;99.90
8220;DHT22;4151;51.110;7.020;2023-07-31T10:01:56;17.20;99.90
8220;DHT22;4151;51.110;7.020;2023-07-31T10:04:27;17.30;99.90
8220;DHT22;4151;51.110;7.020;2023-07-31T10:06:53;17.40;99.90
8220;DHT22;4151;51.110;7.020;2023-07-31T10:09:21;17.40;99.90
8220;DHT22;4151;51.110;7.020;2023-07-31T10:12:00;17.30;99.90
8220;DHT22;4151;51.110;7.020;2023-07-31T10:14:26;17.10;99.90
8220;DHT22;4151;51.110;7.020;2023-07-31T10:16:52;17.10;99.90
8220;DHT22;4151;51.110;7.020;2023-07-31T10:19:19;17.10;99.90
8220;DHT22;4151;51.110;7.020;2023-07-31T10:21:46;17.20;99.90
8220;DHT22;4151;51.110;7.020;2023-07-31T10:24:15;17.10;99.90
8220;DHT22;4151;51.110;7.020;2023-07-31T10:26:41;17.10;99.90
8220;DHT22;4151;51.110;7.020;2023-07-31T10:29:11;17.10;99.90
8220;DHT22;4151;51.110;7.020;2023-07-31T10:31:37;17.10;99.90
8220;DHT22;4151;51.110;7.020;2023-07-31T10:34:03;17.10;99.90
8220;DHT22;4151;51.110;7.020;2023-07-31T10:36:29;17.00;99.90
8220;DHT22;4151;51.110;7.020;2023-07-31T10:38:56;17.00;99.90
8220;DHT22;4151;51.110;7.020;2023-07-31T10:41:31;17.00;99.90
8220;DHT22;4151;51.110;7.020;2023-07-31T10:44:00;16.90;99.90
8220;DHT22;4151;51.110;7.020;2023-07-31T10:46:28;16.90;99.90
8220;DHT22;4151;51.110;7.020;2023-07-31T10:48:59;17.00;99.90
8220;DHT22;4151;51.110;7.020;2023-07-31T10:51:32;17.00;99.90
8220;DHT22;4151;51.110;7.020;2023-07-31T10:54:16;17.10;99.90
8220;DHT22;4151;51.110;7.020;2023-07-31T10:56:47;17.20;99.90
8220;DHT22;4151;51.110;7.020;2023-07-31T10:59:15;17.30;99.90
8220;DHT22;4151;51.110;7.020;2023-07-31T11:01:53;17.50;99.90
8220;DHT22;4151;51.110;7.020;2023-07-31T11:04:24;17.60;99.90
8220;DHT22;4151;51.110;7.020;2023-07-31T11:06:58;17.70;99.90
8220;DHT22;4151;51.110;7.020;2023-07-31T11:09:28;17.70;99.90
8220;DHT22;4151;51.110;7.020;2023-07-31T11:11:54;17.70;99.90
8220;DHT22;4151;51.110;7.020;2023-07-31T11:14:21;17.80;99.90
8220;DHT22;4151;51.110;7.020;2023-07-31T11:16:50;17.80;99.90
8220;DHT22;4151;51.110;7.020;2023-07-31T11:19:21;17.90;99.90
8220;DHT22;4151;51.110;7.020;2023-07-31T11:21:48;18.10;99.90
8220;DHT22;4151;51.110;7.020;2023-07-31T11:24:13;18.20;99.90
8220;DHT22;4151;51.110;7.020;2023-07-31T11:26:39;18.50;99.90
8220;DHT22;4151;51.110;7.020;2023-07-31T11:29:13;18.70;99.90
8220;DHT22;4151;51.110;7.020;2023-07-31T11:31:43;18.90;99.90
8220;DHT22;4151;51.110;7.020;2023-07-31T11:34:08;19.00;99.90
8220;DHT22;4151;51.110;7.020;2023-07-31T11:36:34;19.00;99.90
8220;DHT22;4151;51.110;7.020;2023-07-31T11:39:07;18.90;99.90
8220;DHT22;4151;51.110;7.020;2023-07-31T11:41:33;18.80;99.90
8220;DHT22;4151;51.110;7.020;2023-07-31T11:44:01;18.80;99.90
8220;DHT22;4151;51.110;7.020;2023-07-31T11:46:30;18.70;99.90
8220;DHT22;4151;51.110;7.020;2023-07-31T11:48:59;18.70;99.90
8220;DHT22;4151;51.110;7.020;2023-07-31T11:51:26;18.80;99.90
8220;DHT22;4151;51.110;7.020;2023-07-31T11:54:00;18.90;99.90
8220;DHT22;4151;51.110;7.020;2023-07-31T11:56:27;18.90;99.90
8220;DHT22;4151;51.110;7.020;2023-07-31T11:58:57;19.00;99.90
8220;DHT22;4151;51.110;7.020;2023-07-31T12:01:23;19.00;99.90
8220;DHT22;4151;51.110;7.020;2023-07-31T12:03:50;19.00;99.90
8220;DHT22;4151;51.110;7.020;2023-07-31T12:06:16;19.00;99.90
8220;DHT22;4151;51.110;7.020;2023-07-31T12:08:42;19.10;99.90
8220;DHT22;4151;51.110;7.020;2023-07-31T12:11:09;19.20;99.90
8220;DHT22;4151;51.110;7.020;2023-07-31T12:13:35;19.20;99.90
8220;DHT22;4151;51.110;7.020;2023-07-31T12:16:01;19.30;99.90
8220;DHT22;4151;51.110;7.020;2023-07-31T12:18:33;19.40;99.90
8220;DHT22;4151;51.110;7.020;2023-07-31T12:21:00;19.40;99.90
8220;DHT22;4151;51.110;7.020;2023-07-31T12:23:28;19.40;99.90
8220;DHT22;4151;51.110;7.020;2023-07-31T12:26:11;19.40;99.90
8220;DHT22;4151;51.110;7.020;2023-07-31T12:28:48;19.40;99.90
8220;DHT22;4151;51.110;7.020;2023-07-31T12:31:15;19.40;99.90
8220;DHT22;4151;51.110;7.020;2023-07-31T12:33:43;19.40;99.90
8220;DHT22;4151;51.110;7.020;2023-07-31T12:36:12;19.40;99.90
8220;DHT22;4151;51.110;7.020;2023-07-31T12:38:38;19.30;99.90
8220;DHT22;4151;51.110;7.020;2023-07-31T12:41:03;19.30;99.90
8220;DHT22;4151;51.110;7.020;2023-07-31T12:43:29;19.30;99.90
8220;DHT22;4151;51.110;7.020;2023-07-31T12:45:55;19.40;99.90
8220;DHT22;4151;51.110;7.020;2023-07-31T12:48:24;19.40;99.90
8220;DHT22;4151;51.110;7.020;2023-07-31T12:50:49;19.40;99.90
8220;DHT22;4151;51.110;7.020;2023-07-31T12:53:15;19.50;99.90
8220;DHT22;4151;51.110;7.020;2023-07-31T12:55:41;19.50;99.90
8220;DHT22;4151;51.110;7.020;2023-07-31T12:58:07;19.60;99.90
8220;DHT22;4151;51.110;7.020;2023-07-31T13:00:33;19.60;99.90
8220;DHT22;4151;51.110;7.020;2023-07-31T13:02:59;19.80;99.90
8220;DHT22;4151;51.110;7.020;2023-07-31T13:05:25;19.70;99.90
8220;DHT22;4151;51.110;7.020;2023-07-31T13:07:51;19.60;99.90
8220;DHT22;4151;51.110;7.020;2023-07-31T13:10:17;19.60;99.90
8220;DHT22;4151;51.110;7.020;2023-07-31T13:12:43;19.70;99.90
8220;DHT22;4151;51.110;7.020;2023-07-31T13:15:08;19.80;99.90
8220;DHT22;4151;51.110;7.020;2023-07-31T13:17:36;19.70;99.90
8220;DHT22;4151;51.110;7.020;2023-07-31T13:20:02;19.80;99.90
8220;DHT22;4151;51.110;7.020;2023-07-31T13:22:28;19.80;99.90
8220;DHT22;4151;51.110;7.020;2023-07-31T13:24:54;19.80;99.90
8220;DHT22;4151;51.110;7.020;2023-07-31T13:27:20;19.80;99.90
8220;DHT22;4151;51.110;7.020;2023-07-31T13:29:50;19.80;99.90
8220;DHT22;4151;51.110;7.020;2023-07-31T13:32:17;19.70;99.90
8220;DHT22;4151;51.110;7.020;2023-07-31T13:34:43;19.80;99.90
8220;DHT22;4151;51.110;7.020;2023-07-31T13:37:09;19.80;99.90
8220;DHT22;4151;51.110;7.020;2023-07-31T13:39:35;19.90;99.90
8220;DHT22;4151;51.110;7.020;2023-07-31T13:42:02;20.20;99.90
8220;DHT22;4151;51.110;7.020;2023-07-31T13:44:27;20.80;99.90
8220;DHT22;4151;51.110;7.020;2023-07-31T13:46:53;21.30;99.90
8220;DHT22;4151;51.110;7.020;2023-07-31T13:49:18;21.80;99.90
8220;DHT22;4151;51.110;7.020;2023-07-31T13:51:44;22.00;99.90
8220;DHT22;4151;51.110;7.020;2023-07-31T13:54:10;21.90;99.90
8220;DHT22;4151;51.110;7.020;2023-07-31T13:56:37;21.70;99.90
8220;DHT22;4151;51.110;7.020;2023-07-31T13:59:03;21.90;99.90
8220;DHT22;4151;51.110;7.020;2023-07-31T14:01:28;22.10;99.90
8220;DHT22;4151;51.110;7.020;2023-07-31T14:03:54;22.40;99.90
8220;DHT22;4151;51.110;7.020;2023-07-31T14:06:19;22.00;99.90
8220;DHT22;4151;51.110;7.020;2023-07-31T14:08:45;21.70;99.90
8220;DHT22;4151;51.110;7.020;2023-07-31T14:11:11;21.50;99.90
8220;DHT22;4151;51.110;7.020;2023-07-31T14:13:36;21.30;99.90
8220;DHT22;4151;51.110;7.020;2023-07-31T14:16:02;21.20;99.90
8220;DHT22;4151;51.110;7.020;2023-07-31T14:18:27;21.00;99.90
8220;DHT22;4151;51.110;7.020;2023-07-31T14:20:53;20.80;99.90
8220;DHT22;4151;51.110;7.020;2023-07-31T14:23:18;20.70;99.90
8220;DHT22;4151;51.110;7.020;2023-07-31T14:25:45;20.60;99.90
8220;DHT22;4151;51.110;7.020;2023-07-31T14:28:11;20.60;99.90
8220;DHT22;4151;51.110;7.020;2023-07-31T14:30:37;20.70;99.90
8220;DHT22;4151;51.110;7.020;2023-07-31T14:33:02;20.50;99.90
8220;DHT22;4151;51.110;7.020;2023-07-31T14:35:28;20.50;99.90
8220;DHT22;4151;51.110;7.020;2023-07-31T14:37:54;20.50;99.90
8220;DHT22;4151;51.110;7.020;2023-07-31T14:40:19;20.50;99.90
8220;DHT22;4151;51.110;7.020;2023-07-31T14:42:45;20.50;99.90
8220;DHT22;4151;51.110;7.020;2023-07-31T14:45:11;20.50;99.90
8220;DHT22;4151;51.110;7.020;2023-07-31T14:47:36;20.50;99.90
8220;DHT22;4151;51.110;7.020;2023-07-31T14:50:03;20.50;99.90
8220;DHT22;4151;51.110;7.020;2023-07-31T14:52:28;20.50;99.90
8220;DHT22;4151;51.110;7.020;2023-07-31T14:54:54;20.50;99.90
8220;DHT22;4151;51.110;7.020;2023-07-31T14:57:20;20.40;99.90
8220;DHT22;4151;51.110;7.020;2023-07-31T14:59:47;20.30;99.90
8220;DHT22;4151;51.110;7.020;2023-07-31T15:02:14;20.40;99.90
8220;DHT22;4151;51.110;7.020;2023-07-31T15:04:40;20.40;99.90
8220;DHT22;4151;51.110;7.020;2023-07-31T15:07:06;20.50;99.90
8220;DHT22;4151;51.110;7.020;2023-07-31T15:09:31;20.50;99.90
8220;DHT22;4151;51.110;7.020;2023-07-31T15:11:57;20.50;99.90
8220;DHT22;4151;51.110;7.020;2023-07-31T15:14:23;20.50;99.90
8220;DHT22;4151;51.110;7.020;2023-07-31T15:16:49;20.60;99.90
8220;DHT22;4151;51.110;7.020;2023-07-31T15:19:15;20.60;99.90
8220;DHT22;4151;51.110;7.020;2023-07-31T15:21:41;20.60;99.90
8220;DHT22;4151;51.110;7.020;2023-07-31T15:24:07;20.50;99.90
8220;DHT22;4151;51.110;7.020;2023-07-31T15:26:32;20.50;99.90
8220;DHT22;4151;51.110;7.020;2023-07-31T15:29:07;20.40;99.90
8220;DHT22;4151;51.110;7.020;2023-07-31T15:31:41;20.30;99.90
8220;DHT22;4151;51.110;7.020;2023-07-31T15:34:07;20.30;99.90
8220;DHT22;4151;51.110;7.020;2023-07-31T15:36:33;20.20;99.90
8220;DHT22;4151;51.110;7.020;2023-07-31T15:38:58;20.20;99.90
8220;DHT22;4151;51.110;7.020;2023-07-31T15:41:24;20.20;99.90
8220;DHT22;4151;51.110;7.020;2023-07-31T15:43:50;20.10;99.90
8220;DHT22;4151;51.110;7.020;2023-07-31T15:46:17;20.10;99.90
8220;DHT22;4151;51.110;7.020;2023-07-31T15:48:43;20.20;99.90
8220;DHT22;4151;51.110;7.020;2023-07-31T15:51:09;20.20;99.90
8220;DHT22;4151;51.110;7.020;2023-07-31T15:53:34;20.20;99.90
8220;DHT22;4151;51.110;7.020;2023-07-31T15:56:00;20.20;99.90
8220;DHT22;4151;51.110;7.020;2023-07-31T15:58:25;20.20;99.90
8220;DHT22;4151;51.110;7.020;2023-07-31T16:00:51;20.20;99.90
8220;DHT22;4151;51.110;7.020;2023-07-31T16:03:16;20.20;99.90